Time;durP1;ratioP1;P1;durP2;ratioP2;P2;SDS_P1;SDS_P2;PMS_P1;PMS_P2;Temp;Humidity;BMP_temperature;BMP_pressure;BME280_temperature;BME280_humidity;BME280_pressure;Samples;Min_cycle;Max_cycle;Signal;HPM_P1;HPM_P2
2022/03/31 00:00:34;;;;;;;17.80;6.80;;;;;;;15.98;55.13;98560.59;4994999;28;20651;-70
2022/03/31 00:03:02;;;;;;;12.23;6.57;;;;;;;15.96;54.97;98550.44;4995334;28;20651;-69
2022/03/31 00:05:28;;;;;;;9.90;6.93;;;;;;;15.85;55.65;98552.19;4995364;28;20202;-69
2022/03/31 00:07:56;;;;;;;15.63;5.60;;;;;;;15.86;55.53;98546.56;4994877;28;20281;-69
2022/03/31 00:10:25;;;;;;;12.50;6.80;;;;;;;15.69;55.95;98559.22;4995517;28;20230;-69
2022/03/31 00:12:52;;;;;;;11.17;6.03;;;;;;;15.66;56.37;98557.09;4994839;28;20199;-69
2022/03/31 00:15:19;;;;;;;12.93;6.00;;;;;;;15.69;56.29;98559.22;4994889;28;20662;-69
2022/03/31 00:17:47;;;;;;;15.67;6.37;;;;;;;15.60;56.47;98550.03;4995721;28;20195;-69
2022/03/31 00:20:14;;;;;;;9.07;5.90;;;;;;;15.49;57.27;98542.16;4994516;28;20314;-69
2022/03/31 00:22:41;;;;;;;9.93;6.47;;;;;;;15.44;57.21;98534.88;4994783;28;20257;-69
2022/03/31 00:25:10;;;;;;;11.67;6.50;;;;;;;15.41;57.10;98540.72;4994399;28;20253;-68
2022/03/31 00:27:38;;;;;;;14.00;6.53;;;;;;;15.35;57.81;98527.53;4994595;28;20697;-69
2022/03/31 00:30:07;;;;;;;14.33;6.73;;;;;;;14.95;59.09;98537.69;4995204;28;20199;-69
2022/03/31 00:32:34;;;;;;;10.50;6.23;;;;;;;15.01;59.39;98537.53;4994812;28;20195;-69
2022/03/31 00:35:03;;;;;;;10.93;6.73;;;;;;;14.97;59.38;98555.13;4995392;28;20195;-69
2022/03/31 00:37:30;;;;;;;9.27;6.37;;;;;;;14.98;59.35;98551.38;4994137;28;20194;-69
2022/03/31 00:39:57;;;;;;;11.50;6.57;;;;;;;14.96;59.49;98542.78;4994428;28;20257;-68
2022/03/31 00:42:25;;;;;;;13.20;6.80;;;;;;;14.96;59.47;98550.00;4992959;28;20650;-68
2022/03/31 00:44:51;;;;;;;10.90;6.77;;;;;;;14.90;59.75;98561.66;4993202;28;20789;-68
2022/03/31 00:47:19;;;;;;;11.10;6.50;;;;;;;14.83;60.15;98542.34;4993633;28;20253;-68
2022/03/31 00:49:46;;;;;;;11.17;6.30;;;;;;;14.88;59.88;98534.38;4994091;28;20252;-69
2022/03/31 00:52:15;;;;;;;11.30;6.67;;;;;;;14.94;59.58;98544.91;4994438;28;20194;-69
2022/03/31 00:54:43;;;;;;;9.87;6.87;;;;;;;14.72;59.58;98503.16;4994618;28;20202;-68
2022/03/31 00:57:11;;;;;;;10.40;6.07;;;;;;;14.98;59.75;98535.31;4994069;28;20662;-68
2022/03/31 00:59:37;;;;;;;11.50;6.93;;;;;;;14.95;59.65;98551.88;4994329;28;20198;-69
2022/03/31 01:02:05;;;;;;;9.70;6.00;;;;;;;14.81;60.10;98555.94;4993988;28;20666;-69
2022/03/31 01:04:34;;;;;;;10.27;6.60;;;;;;;14.78;60.80;98550.25;4994776;28;20195;-68
2022/03/31 01:07:01;;;;;;;15.50;6.60;;;;;;;14.78;60.92;98540.41;4994213;28;20199;-68
2022/03/31 01:09:31;;;;;;;7.70;6.60;;;;;;;14.77;60.58;98544.13;4994956;28;20313;-69
2022/03/31 01:11:58;;;;;;;13.97;7.13;;;;;;;14.75;60.59;98540.09;4993779;28;20190;-69
2022/03/31 01:14:25;;;;;;;12.43;6.17;;;;;;;14.66;60.66;98547.69;4994115;28;20198;-69
2022/03/31 01:16:52;;;;;;;10.23;6.67;;;;;;;14.64;60.99;98544.47;4993825;28;20674;-69
2022/03/31 01:19:18;;;;;;;9.93;6.47;;;;;;;14.50;61.51;98543.19;4994783;28;20622;-68
2022/03/31 01:21:46;;;;;;;14.53;7.20;;;;;;;14.52;62.02;98546.44;4994172;28;20257;-69
2022/03/31 01:24:17;;;;;;;9.30;5.80;;;;;;;14.50;61.99;98556.53;4993527;28;20202;-69
2022/03/31 01:26:45;;;;;;;8.23;6.40;;;;;;;14.51;62.08;98554.69;4994127;28;20245;-69
2022/03/31 01:29:12;;;;;;;12.93;6.33;;;;;;;14.55;61.61;98551.25;4993422;28;20720;-68
2022/03/31 01:31:39;;;;;;;9.83;6.77;;;;;;;14.45;62.23;98547.63;4993774;28;20198;-68
2022/03/31 01:34:07;;;;;;;11.07;6.40;;;;;;;14.19;63.02;98538.38;4993218;28;20674;-69
2022/03/31 01:36:34;;;;;;;12.73;6.63;;;;;;;14.10;64.12;98552.38;4992961;28;20667;-69
2022/03/31 01:39:01;;;;;;;13.17;6.57;;;;;;;14.03;63.76;98552.53;4993631;28;20198;-69
2022/03/31 01:41:29;;;;;;;12.47;6.30;;;;;;;14.11;63.76;98562.81;4993421;28;20194;-69
2022/03/31 01:43:56;;;;;;;12.37;7.37;;;;;;;14.12;63.90;98551.06;4993440;28;20199;-69
2022/03/31 01:46:23;;;;;;;10.77;7.27;;;;;;;14.21;63.57;98543.53;4993441;28;20586;-69
2022/03/31 01:48:51;;;;;;;10.50;6.80;;;;;;;14.12;63.55;98535.06;4993387;28;20269;-69
2022/03/31 01:51:17;;;;;;;9.13;6.50;;;;;;;14.16;64.00;98525.50;4993312;28;20198;-69
2022/03/31 01:53:44;;;;;;;12.63;7.80;;;;;;;14.17;63.70;98531.66;4993308;28;20624;-69
2022/03/31 01:56:11;;;;;;;9.90;6.80;;;;;;;14.14;64.25;98521.47;4993362;28;20272;-69
2022/03/31 01:58:39;;;;;;;15.00;6.73;;;;;;;14.10;64.18;98521.13;4993167;28;20195;-69
2022/03/31 02:01:06;;;;;;;13.50;7.73;;;;;;;14.05;64.14;98506.91;4992650;28;20556;-69
2022/03/31 02:03:33;;;;;;;11.20;7.27;;;;;;;14.06;64.69;98519.19;4993766;28;20198;-68
2022/03/31 02:06:00;;;;;;;12.60;7.00;;;;;;;14.11;64.44;98512.06;4992741;28;20198;-69
2022/03/31 02:08:27;;;;;;;13.93;7.17;;;;;;;14.16;64.18;98530.84;4992788;28;20648;-69
2022/03/31 02:10:53;;;;;;;13.17;6.60;;;;;;;14.15;64.04;98509.72;4993215;28;20222;-69
2022/03/31 02:13:20;;;;;;;13.73;6.80;;;;;;;14.16;64.13;98509.50;4992810;28;20257;-69
2022/03/31 02:15:48;;;;;;;16.50;7.30;;;;;;;14.10;63.83;98497.09;4993028;28;20559;-69
2022/03/31 02:18:15;;;;;;;15.90;7.23;;;;;;;14.02;64.31;98497.50;4992737;28;20261;-69
2022/03/31 02:20:41;;;;;;;21.07;7.20;;;;;;;14.07;64.29;98494.94;4993022;28;20206;-69
2022/03/31 02:23:09;;;;;;;22.73;8.37;;;;;;;14.12;64.47;98503.00;4992994;28;20195;-69
2022/03/31 02:25:36;;;;;;;22.53;7.73;;;;;;;14.18;63.98;98511.91;4992690;28;20199;-68
2022/03/31 02:28:02;;;;;;;20.43;7.60;;;;;;;13.98;64.27;98501.72;4992860;28;20209;-69
2022/03/31 02:30:30;;;;;;;11.33;7.07;;;;;;;14.13;64.17;98520.66;4992633;28;20726;-69
2022/03/31 02:32:59;;;;;;;11.67;7.57;;;;;;;14.17;63.92;98519.09;4992870;28;20198;-69
2022/03/31 02:35:27;;;;;;;13.93;7.23;;;;;;;14.18;63.68;98512.72;4992812;28;20709;-69
2022/03/31 02:37:54;;;;;;;18.00;6.67;;;;;;;14.22;63.55;98521.88;4992291;28;20729;-69
2022/03/31 02:40:20;;;;;;;17.37;7.70;;;;;;;14.19;64.10;98529.56;4992310;28;20194;-68
2022/03/31 02:42:48;;;;;;;19.10;7.53;;;;;;;14.24;63.79;98533.16;4992475;28;20249;-69
2022/03/31 02:45:15;;;;;;;24.50;7.67;;;;;;;14.18;63.75;98520.72;4992247;28;20667;-69
2022/03/31 02:47:44;;;;;;;15.57;7.33;;;;;;;14.18;64.50;98520.72;4993299;28;20191;-69
2022/03/31 02:50:13;;;;;;;12.13;7.97;;;;;;;14.20;64.10;98526.66;4992619;28;20222;-69
2022/03/31 02:55:29;;;;;;;14.27;7.50;;;;;;;14.19;63.77;98546.41;4993244;28;20189;-69
2022/03/31 02:57:57;;;;;;;14.80;8.03;;;;;;;14.17;63.68;98553.81;4992286;28;20191;-69
2022/03/31 03:00:24;;;;;;;15.33;8.23;;;;;;;14.10;64.22;98542.47;4992303;28;20721;-69
2022/03/31 03:02:51;;;;;;;14.77;7.30;;;;;;;14.11;63.57;98512.06;4995652;28;20658;-69
2022/03/31 03:05:20;;;;;;;20.17;8.87;;;;;;;14.07;63.64;98510.13;4996175;28;20199;-69
2022/03/31 03:07:47;;;;;;;29.23;15.37;;;;;;;13.93;63.67;98514.16;4996121;28;20241;-69
2022/03/31 03:10:14;;;;;;;20.10;9.20;;;;;;;13.98;63.85;98528.41;4995942;28;20297;-69
2022/03/31 03:12:42;;;;;;;17.80;7.77;;;;;;;14.00;63.70;98518.28;4996394;28;20277;-69
2022/03/31 03:15:09;;;;;;;18.73;8.67;;;;;;;13.97;64.27;98505.41;4996288;28;20199;-69
2022/03/31 03:17:36;;;;;;;16.33;10.10;;;;;;;14.01;64.09;98505.75;4996423;28;20199;-69
2022/03/31 03:20:04;;;;;;;17.87;9.40;;;;;;;14.03;64.03;98515.16;4996900;28;20269;-69
2022/03/31 03:22:32;;;;;;;21.87;11.07;;;;;;;13.97;64.39;98509.97;4996210;28;20249;-69
2022/03/31 03:24:59;;;;;;;11.83;8.40;;;;;;;13.79;65.26;98481.63;4996040;28;20290;-69
2022/03/31 03:27:27;;;;;;;11.17;7.43;;;;;;;14.00;65.17;98507.63;4996034;28;20196;-69
2022/03/31 03:29:53;;;;;;;19.80;8.23;;;;;;;13.92;65.48;98497.34;4995669;28;20765;-69
2022/03/31 03:32:22;;;;;;;19.37;10.57;;;;;;;13.92;65.78;98497.34;4995667;28;20662;-69
2022/03/31 03:34:48;;;;;;;13.87;8.83;;;;;;;13.91;65.90;98501.06;4995388;28;20222;-69
2022/03/31 03:37:15;;;;;;;21.13;8.63;;;;;;;13.84;65.68;98499.59;4995921;28;20253;-69
2022/03/31 03:39:44;;;;;;;20.40;8.80;;;;;;;13.87;66.12;98499.91;4995628;28;20572;-69
2022/03/31 03:42:11;;;;;;;14.20;8.27;;;;;;;13.73;66.62;98492.47;4995561;28;20282;-69
2022/03/31 03:44:38;;;;;;;12.37;8.27;;;;;;;13.62;67.39;98485.31;4995558;28;20202;-69
2022/03/31 03:47:06;;;;;;;14.53;8.77;;;;;;;13.46;68.43;98492.25;4995301;28;20616;-67
2022/03/31 03:49:33;;;;;;;17.37;9.20;;;;;;;13.43;68.44;98482.03;4995463;28;20272;-68
2022/03/31 03:52:00;;;;;;;16.43;9.47;;;;;;;13.35;68.85;98495.75;4995137;28;20195;-68
2022/03/31 03:54:27;;;;;;;16.73;8.77;;;;;;;13.50;68.86;98514.72;4995050;28;20553;-69
2022/03/31 03:56:55;;;;;;;15.93;8.97;;;;;;;13.54;68.46;98515.88;4994878;28;20278;-68
2022/03/31 03:59:22;;;;;;;14.67;9.37;;;;;;;13.52;68.62;98501.94;4995130;28;20202;-69
2022/03/31 04:01:48;;;;;;;15.97;8.93;;;;;;;13.43;69.02;98519.38;4994926;28;20195;-68
2022/03/31 04:04:15;;;;;;;20.10;9.03;;;;;;;13.45;68.91;98511.97;4995285;28;20207;-68
2022/03/31 04:06:42;;;;;;;13.13;8.63;;;;;;;13.54;68.49;98509.72;4995053;28;20233;-67
2022/03/31 04:09:09;;;;;;;22.97;8.40;;;;;;;13.52;68.78;98499.28;4994808;28;20313;-68
2022/03/31 04:11:36;;;;;;;13.67;8.33;;;;;;;13.58;68.58;98495.66;4995080;28;20231;-68
2022/03/31 04:14:04;;;;;;;18.00;8.97;;;;;;;13.57;68.43;98491.38;4993631;28;20199;-68
2022/03/31 04:16:31;;;;;;;18.57;8.90;;;;;;;13.59;68.28;98499.13;4994802;28;20249;-68
2022/03/31 04:18:57;;;;;;;19.80;9.63;;;;;;;13.64;68.47;98501.91;4994531;28;20206;-68
2022/03/31 04:21:24;;;;;;;19.13;8.47;;;;;;;13.68;68.12;98490.50;4994399;28;20639;-68
2022/03/31 04:23:51;;;;;;;23.47;9.30;;;;;;;13.61;67.99;98471.19;4994390;28;20229;-67
2022/03/31 04:26:17;;;;;;;16.70;9.33;;;;;;;13.71;67.99;98500.69;4994209;28;20203;-68
2022/03/31 04:28:44;;;;;;;14.87;9.20;;;;;;;13.72;67.75;98494.31;4994587;28;20349;-68
2022/03/31 04:31:12;;;;;;;19.40;9.53;;;;;;;13.80;67.80;98490.47;4994202;28;20253;-68
2022/03/31 04:33:39;;;;;;;19.17;10.10;;;;;;;13.83;67.62;98498.78;4994587;28;20194;-68
2022/03/31 04:36:06;;;;;;;27.50;9.63;;;;;;;13.89;67.29;98500.47;4994502;28;20265;-70
2022/03/31 04:38:32;;;;;;;25.20;9.57;;;;;;;13.97;67.16;98500.06;4993971;28;20285;-69
2022/03/31 04:40:59;;;;;;;33.13;10.43;;;;;;;14.04;67.29;98490.06;4994657;28;20198;-69
2022/03/31 04:43:26;;;;;;;15.77;8.53;;;;;;;13.89;66.79;98481.00;4994167;28;20191;-69
2022/03/31 04:45:53;;;;;;;22.97;10.13;;;;;;;13.96;67.09;98478.97;4994399;28;20242;-69
2022/03/31 04:48:21;;;;;;;19.63;9.67;;;;;;;13.92;67.45;98481.31;4993105;28;20190;-70
2022/03/31 04:50:48;;;;;;;27.33;10.63;;;;;;;13.97;66.98;98502.75;4993879;28;20694;-67
2022/03/31 04:53:17;;;;;;;19.63;9.50;;;;;;;14.07;66.67;98502.13;4993792;28;20202;-70
2022/03/31 04:55:44;;;;;;;25.10;9.03;;;;;;;14.15;66.39;98521.22;4994125;28;20253;-67
2022/03/31 04:58:11;;;;;;;28.13;8.83;;;;;;;14.22;66.24;98527.22;4994015;28;20249;-68
2022/03/31 05:00:38;;;;;;;23.20;9.00;;;;;;;14.27;65.54;98527.34;4993617;28;20206;-68
2022/03/31 05:03:05;;;;;;;17.60;7.33;;;;;;;14.36;70.91;98533.88;4993878;28;20278;-69
2022/03/31 05:05:33;;;;;;;14.30;7.93;;;;;;;14.87;71.08;98546.94;4993661;28;20191;-67
2022/03/31 05:07:59;;;;;;;27.70;9.10;;;;;;;15.40;64.16;98544.44;4993092;28;20195;-71
2022/03/31 05:10:26;;;;;;;34.30;10.00;;;;;;;15.88;63.12;98550.88;4993621;28;20239;-71
2022/03/31 05:12:53;;;;;;;28.57;11.53;;;;;;;15.86;60.67;98538.53;4991648;28;20656;-67
2022/03/31 05:15:20;;;;;;;28.07;10.63;;;;;;;15.81;59.76;98533.13;4988132;28;20194;-68
2022/03/31 05:17:46;;;;;;;24.03;11.30;;;;;;;15.71;60.03;98534.91;4992711;28;20203;-67
2022/03/31 05:20:14;;;;;;;24.60;9.93;;;;;;;15.57;59.99;98529.13;5006733;28;20651;-68
2022/03/31 05:22:42;;;;;;;25.27;9.80;;;;;;;15.56;60.60;98542.78;5006078;28;20191;-67
2022/03/31 05:25:11;;;;;;;29.50;10.13;;;;;;;15.55;60.71;98546.50;4971554;28;20258;-68
2022/03/31 05:27:43;;;;;;;21.20;10.00;;;;;;;15.52;60.71;98539.78;4971810;28;20331;-67
2022/03/31 05:30:11;;;;;;;23.87;9.97;;;;;;;15.35;61.17;98531.03;4971914;28;20218;-68
2022/03/31 05:32:38;;;;;;;28.90;9.37;;;;;;;15.18;61.38;98518.72;4972202;28;20191;-67
2022/03/31 05:35:05;;;;;;;27.63;9.20;;;;;;;15.17;62.00;98543.88;4971696;28;20215;-68
2022/03/31 05:37:33;;;;;;;27.33;9.60;;;;;;;15.17;61.60;98538.53;4971954;28;20235;-68
2022/03/31 05:40:04;;;;;;;29.13;9.37;;;;;;;15.11;62.09;98537.63;4984745;28;20213;-68
2022/03/31 05:42:30;;;;;;;22.67;10.00;;;;;;;15.09;62.59;98536.28;4984781;28;20191;-67
2022/03/31 05:44:57;;;;;;;18.57;9.90;;;;;;;15.07;62.91;98539.19;4987519;28;20191;-68
2022/03/31 05:47:24;;;;;;;24.77;9.40;;;;;;;15.10;62.85;98551.25;4973613;28;20195;-68
2022/03/31 05:49:50;;;;;;;25.63;8.43;;;;;;;15.07;62.86;98555.25;4984719;28;20756;-69
2022/03/31 05:52:17;;;;;;;23.87;10.00;;;;;;;15.04;62.69;98560.28;4971049;28;20611;-69
2022/03/31 05:54:44;;;;;;;23.83;9.47;;;;;;;14.96;63.14;98556.16;4971417;28;20202;-67
2022/03/31 05:57:12;;;;;;;21.43;8.07;;;;;;;14.98;63.42;98556.72;4971330;28;20305;-68
2022/03/31 05:59:39;;;;;;;17.87;9.10;;;;;;;15.00;63.72;98559.16;4971685;28;20289;-68
2022/03/31 06:02:06;;;;;;;22.25;9.65;;;;;;;15.02;63.61;98547.16;4970671;28;20508;-70
2022/03/31 06:04:33;;;;;;;19.60;10.07;;;;;;;15.09;63.71;98547.78;4971305;28;20250;-68
2022/03/31 06:06:59;;;;;;;22.60;11.87;;;;;;;15.03;63.65;98556.78;4971189;28;20266;-70
2022/03/31 06:09:26;;;;;;;39.90;15.77;;;;;;;15.07;63.41;98570.50;4971331;28;20674;-68
2022/03/31 06:11:53;;;;;;;34.45;18.92;;;;;;;15.01;63.92;98566.13;4969647;28;20449;-67
2022/03/31 06:14:21;;;;;;;28.87;12.87;;;;;;;14.95;64.20;98564.44;4978913;28;20205;-68
2022/03/31 06:16:49;;;;;;;19.20;10.73;;;;;;;14.90;63.82;98565.16;4985268;28;20914;-67
2022/03/31 06:19:16;;;;;;;19.73;9.77;;;;;;;14.90;64.13;98581.22;4991414;28;20195;-68
2022/03/31 06:21:43;;;;;;;24.30;10.73;;;;;;;14.96;64.19;98580.22;4991810;28;20655;-67
2022/03/31 06:24:10;;;;;;;24.70;12.13;;;;;;;14.87;64.98;98579.03;4991662;28;20199;-68
2022/03/31 06:26:36;;;;;;;25.67;11.93;;;;;;;14.88;64.70;98590.53;4991806;28;20611;-67
2022/03/31 06:29:05;;;;;;;31.00;13.50;;;;;;;14.87;64.45;98589.72;4992412;28;20234;-68
2022/03/31 06:31:33;;;;;;;24.17;11.27;;;;;;;15.04;64.37;98592.38;4992260;28;20598;-69
2022/03/31 06:34:01;;;;;;;30.77;13.10;;;;;;;15.10;64.37;98565.44;4992383;28;20198;-69
2022/03/31 06:36:29;;;;;;;27.70;14.60;;;;;;;15.11;63.60;98553.69;4995232;28;20241;-68
2022/03/31 06:38:55;;;;;;;35.63;15.83;;;;;;;15.11;64.09;98547.53;4998815;28;20268;-64
2022/03/31 06:41:22;;;;;;;55.97;24.00;;;;;;;15.09;64.09;98542.44;4998939;28;20195;-64
2022/03/31 06:43:49;;;;;;;42.83;15.77;;;;;;;15.03;63.47;98531.94;4998948;28;20194;-64
2022/03/31 06:46:17;;;;;;;28.90;12.13;;;;;;;15.03;64.09;98519.34;4999179;28;20190;-64
2022/03/31 06:48:47;;;;;;;31.60;11.80;;;;;;;15.05;63.68;98513.75;4998680;28;20198;-64
2022/03/31 06:51:16;;;;;;;24.53;12.20;;;;;;;15.03;64.37;98532.72;4983042;28;20219;-64
2022/03/31 06:53:44;;;;;;;28.03;12.03;;;;;;;15.07;63.60;98517.78;4978968;28;20195;-64
2022/03/31 06:56:16;;;;;;;18.73;10.27;;;;;;;15.02;64.51;98524.94;4979391;28;20199;-63
2022/03/31 06:58:42;;;;;;;28.80;10.63;;;;;;;15.08;63.50;98538.13;4979504;28;20667;-65
2022/03/31 07:01:09;;;;;;;27.87;12.33;;;;;;;15.23;63.87;98546.34;4979413;28;20195;-65
2022/03/31 07:03:37;;;;;;;30.57;12.47;;;;;;;15.27;62.81;98550.16;4978462;28;20618;-67
2022/03/31 07:06:06;;;;;;;28.23;11.67;;;;;;;15.29;63.29;98561.44;4977696;28;20749;-67
2022/03/31 07:08:34;;;;;;;24.83;11.00;;;;;;;15.37;62.82;98577.09;4979019;28;20286;-67
2022/03/31 07:11:01;;;;;;;29.07;10.73;;;;;;;15.53;62.21;98589.56;4979021;28;20297;-67
2022/03/31 07:13:28;;;;;;;28.40;10.77;;;;;;;15.58;61.68;98588.81;4978261;28;20195;-67
2022/03/31 07:15:55;;;;;;;29.43;11.53;;;;;;;15.71;61.61;98591.94;4978191;28;20277;-67
2022/03/31 07:18:21;;;;;;;27.10;10.10;;;;;;;15.78;62.10;98589.88;4978206;28;20203;-67
2022/03/31 07:20:48;;;;;;;21.30;10.90;;;;;;;15.92;61.60;98578.78;4978202;28;20199;-68
2022/03/31 07:23:18;;;;;;;30.10;11.77;;;;;;;15.62;62.91;98579.25;4978743;28;20199;-67
2022/03/31 07:25:45;;;;;;;31.17;12.80;;;;;;;15.88;61.86;98583.81;4978497;28;20199;-67
2022/03/31 07:28:11;;;;;;;27.83;12.07;;;;;;;16.10;61.54;98575.72;4978718;28;20199;-67
2022/03/31 07:30:38;;;;;;;33.47;11.57;;;;;;;16.24;60.58;98579.59;4978886;28;20293;-68
2022/03/31 07:33:05;;;;;;;29.13;10.70;;;;;;;16.42;60.65;98569.38;4978535;28;20218;-68
2022/03/31 07:35:34;;;;;;;28.80;11.23;;;;;;;16.55;60.33;98581.53;4978570;28;20256;-68
2022/03/31 07:38:03;;;;;;;27.50;10.73;;;;;;;16.65;59.90;98584.31;4978688;28;20191;-68
2022/03/31 07:40:31;;;;;;;27.07;10.37;;;;;;;16.79;60.05;98585.47;4978752;28;20210;-68
2022/03/31 07:42:58;;;;;;;22.13;10.03;;;;;;;16.94;58.93;98586.38;4978909;28;20197;-67
2022/03/31 07:45:25;;;;;;;26.23;10.43;;;;;;;17.14;58.38;98574.94;4979127;28;20195;-68
2022/03/31 07:47:52;;;;;;;29.93;10.10;;;;;;;17.18;58.51;98579.53;4977507;28;20738;-67
2022/03/31 07:50:20;;;;;;;31.23;9.90;;;;;;;17.48;57.63;98581.59;4975607;28;20278;-68
2022/03/31 07:52:47;;;;;;;24.00;10.07;;;;;;;17.46;57.26;98575.66;4976026;28;20218;-67
2022/03/31 07:55:15;;;;;;;23.77;9.33;;;;;;;17.71;57.08;98567.69;4975407;28;20232;-68
2022/03/31 07:57:44;;;;;;;23.50;10.50;;;;;;;17.46;58.08;98554.19;4975700;28;20225;-68
2022/03/31 08:00:13;;;;;;;20.17;9.90;;;;;;;17.49;58.12;98548.31;4975187;28;20202;-68
2022/03/31 08:02:41;;;;;;;24.20;11.17;;;;;;;17.53;57.99;98549.38;4975194;28;20676;-68
2022/03/31 08:05:09;;;;;;;20.70;9.83;;;;;;;17.76;57.75;98538.19;4977519;28;20195;-68
2022/03/31 08:07:36;;;;;;;20.80;10.23;;;;;;;17.98;57.44;98546.81;4978285;28;20194;-68
2022/03/31 08:10:03;;;;;;;27.33;10.77;;;;;;;17.81;57.49;98546.25;4972027;28;20607;-68
2022/03/31 08:12:30;;;;;;;24.03;10.43;;;;;;;18.14;57.04;98535.03;4974940;28;20280;-68
2022/03/31 08:14:58;;;;;;;23.23;10.93;;;;;;;18.51;55.97;98546.34;4976560;28;20198;-68
2022/03/31 08:17:25;;;;;;;21.33;10.63;;;;;;;18.95;54.14;98558.94;4994467;28;20263;-70
2022/03/31 08:19:52;;;;;;;30.00;10.27;;;;;;;19.30;52.71;98560.75;4994826;28;20195;-69
2022/03/31 08:22:18;;;;;;;20.87;10.00;;;;;;;19.34;53.21;98561.81;4994035;28;20203;-69
2022/03/31 08:24:46;;;;;;;21.00;9.67;;;;;;;19.51;52.23;98546.13;4994448;28;20670;-66
2022/03/31 08:27:13;;;;;;;25.00;9.57;;;;;;;19.66;52.39;98543.38;4994876;28;20267;-67
2022/03/31 08:29:40;;;;;;;20.03;9.57;;;;;;;20.01;50.96;98551.28;4994656;28;20256;-67
2022/03/31 08:32:09;;;;;;;30.27;11.13;;;;;;;20.22;49.97;98539.28;4994573;28;20234;-66
2022/03/31 08:34:36;;;;;;;25.37;10.33;;;;;;;20.18;49.57;98546.31;4994624;28;20238;-68
2022/03/31 08:37:03;;;;;;;29.50;10.27;;;;;;;20.01;50.60;98551.28;4994556;28;20195;-67
2022/03/31 08:39:29;;;;;;;27.67;10.57;;;;;;;20.04;50.21;98551.50;4994192;28;20729;-66
2022/03/31 08:41:56;;;;;;;25.37;10.47;;;;;;;19.81;51.05;98549.47;4994120;28;20202;-66
2022/03/31 08:44:23;;;;;;;25.17;10.27;;;;;;;19.97;50.60;98548.31;4994120;28;20195;-67
2022/03/31 08:46:51;;;;;;;24.73;9.43;;;;;;;19.99;50.22;98548.03;4993934;28;20199;-67
2022/03/31 08:49:20;;;;;;;18.37;10.33;;;;;;;20.07;50.24;98548.25;4993646;28;20739;-67
2022/03/31 08:51:47;;;;;;;34.73;10.77;;;;;;;20.20;50.29;98534.16;4975244;28;20231;-67
2022/03/31 08:54:14;;;;;;;30.03;10.73;;;;;;;20.28;49.91;98524.66;4974624;28;20199;-66
2022/03/31 08:56:41;;;;;;;18.73;9.67;;;;;;;20.37;49.21;98517.56;4974855;28;20261;-67
2022/03/31 08:59:08;;;;;;;18.97;9.57;;;;;;;20.45;49.86;98514.25;4974174;28;20351;-67
2022/03/31 09:01:38;;;;;;;15.50;7.90;;;;;;;20.79;50.31;98527.72;4974847;28;20285;-67
2022/03/31 09:04:05;;;;;;;20.67;9.47;;;;;;;21.17;48.34;98529.50;4974305;28;20211;-66
2022/03/31 09:06:33;;;;;;;20.83;9.67;;;;;;;21.27;47.64;98521.28;4974387;28;20208;-66
2022/03/31 09:09:03;;;;;;;21.20;10.47;;;;;;;21.17;47.65;98492.50;4974459;28;20291;-67
2022/03/31 09:11:32;;;;;;;16.73;9.13;;;;;;;21.30;48.11;98505.31;4973885;28;20241;-66
2022/03/31 09:14:01;;;;;;;18.43;9.00;;;;;;;21.49;47.82;98492.63;4974353;28;20230;-66
2022/03/31 09:16:33;;;;;;;19.73;10.13;;;;;;;21.37;47.31;98469.81;4974308;28;20196;-66
2022/03/31 09:19:01;;;;;;;16.80;8.50;;;;;;;21.56;47.44;98489.56;4974043;28;20690;-67
2022/03/31 09:21:27;;;;;;;18.57;9.33;;;;;;;21.74;46.50;98505.03;4973916;28;20207;-67
2022/03/31 09:23:56;;;;;;;23.20;9.43;;;;;;;21.68;47.00;98534.00;4974113;28;20259;-66
2022/03/31 09:26:27;;;;;;;25.63;10.80;;;;;;;21.68;46.68;98539.41;4974196;28;20195;-66
2022/03/31 09:28:55;;;;;;;22.20;8.73;;;;;;;21.40;47.64;98526.00;4974276;28;20645;-67
2022/03/31 09:31:26;;;;;;;28.53;8.87;;;;;;;21.41;48.28;98525.72;4973877;28;20298;-66
2022/03/31 09:33:57;;;;;;;19.03;9.03;;;;;;;21.69;47.67;98503.19;4973661;28;20195;-67
2022/03/31 09:36:26;;;;;;;27.77;10.90;;;;;;;21.55;46.99;98518.50;4973877;28;20258;-66
2022/03/31 09:38:54;;;;;;;20.73;9.53;;;;;;;21.23;48.41;98512.94;4973627;28;20226;-66
2022/03/31 09:41:24;;;;;;;17.17;7.93;;;;;;;21.23;49.27;98514.84;4973267;28;20639;-66
2022/03/31 09:43:52;;;;;;;23.17;11.07;;;;;;;21.44;48.19;98495.38;4973938;28;20287;-66
2022/03/31 09:46:23;;;;;;;23.43;9.67;;;;;;;21.60;47.99;98485.19;4973679;28;20321;-66
2022/03/31 09:48:51;;;;;;;24.13;9.87;;;;;;;21.81;47.29;98490.03;4973795;28;20637;-66
2022/03/31 09:51:18;;;;;;;23.83;9.73;;;;;;;21.97;46.56;98499.53;4972960;28;20219;-67
2022/03/31 09:53:48;;;;;;;22.43;10.07;;;;;;;21.93;46.59;98476.09;4973026;28;20195;-67
2022/03/31 09:56:17;;;;;;;24.73;10.77;;;;;;;21.99;46.86;98483.84;4972824;28;20643;-67
2022/03/31 09:58:46;;;;;;;21.53;9.77;;;;;;;21.70;48.06;98466.97;4972292;28;20196;-67
2022/03/31 10:01:14;;;;;;;22.03;9.73;;;;;;;21.67;47.68;98462.09;4972140;28;20201;-67
2022/03/31 10:03:41;;;;;;;29.23;9.80;;;;;;;21.72;47.70;98456.66;4972577;28;20671;-67
2022/03/31 10:06:08;;;;;;;26.67;10.53;;;;;;;21.77;47.73;98461.19;4972846;28;20293;-67
2022/03/31 10:08:38;;;;;;;27.03;10.33;;;;;;;21.66;47.92;98436.19;4972264;28;20191;-67
2022/03/31 10:11:05;;;;;;;22.87;9.57;;;;;;;21.73;47.93;98427.72;4971421;28;20246;-68
2022/03/31 10:13:38;;;;;;;23.40;9.23;;;;;;;21.80;47.68;98430.88;4972533;28;20254;-68
2022/03/31 10:16:09;;;;;;;23.47;8.87;;;;;;;21.90;47.76;98441.53;4972820;28;20254;-67
2022/03/31 10:18:36;;;;;;;21.23;9.40;;;;;;;22.12;47.78;98453.31;4972982;28;20191;-66
2022/03/31 10:21:04;;;;;;;22.77;10.10;;;;;;;22.26;47.06;98448.75;4973079;28;20203;-70
2022/03/31 10:26:22;;;;;;;20.97;9.07;;;;;;;22.48;46.89;98440.84;4992341;28;20179;-69
2022/03/31 10:28:57;;;;;;;17.97;9.23;;;;;;;22.73;45.89;98437.66;4992999;28;20245;-69
2022/03/31 10:31:35;;;;;;;17.87;8.87;;;;;;;22.96;44.97;98431.25;4992691;28;20309;-71
2022/03/31 10:34:02;;;;;;;21.20;7.77;;;;;;;22.88;43.71;98407.56;4992710;28;20198;-70
2022/03/31 10:36:38;;;;;;;23.53;7.97;;;;;;;23.01;43.88;98439.25;4992688;28;20191;-69
2022/03/31 10:39:07;;;;;;;26.23;8.33;;;;;;;22.84;43.11;98422.81;4999700;28;20193;-71
2022/03/31 10:41:36;;;;;;;17.83;7.83;;;;;;;22.86;44.30;98428.72;4985143;28;20586;-69
2022/03/31 10:44:05;;;;;;;17.63;8.00;;;;;;;23.00;43.62;98432.25;4973127;28;20286;-69
2022/03/31 10:46:32;;;;;;;19.67;8.30;;;;;;;22.93;43.55;98429.13;4972690;28;20195;-69
2022/03/31 10:49:04;;;;;;;33.13;7.70;;;;;;;23.06;43.41;98417.47;4971568;28;20738;-68
2022/03/31 10:51:35;;;;;;;23.47;7.67;;;;;;;23.12;42.98;98413.53;4990160;28;20261;-70
2022/03/31 10:54:03;;;;;;;21.07;7.83;;;;;;;23.24;42.35;98396.81;4992126;28;20269;-69
2022/03/31 10:56:31;;;;;;;18.20;7.77;;;;;;;23.20;41.85;98393.91;4992309;28;20275;-73
2022/03/31 10:58:59;;;;;;;16.50;6.90;;;;;;;23.26;43.68;98400.81;4992753;28;20206;-69
2022/03/31 11:01:28;;;;;;;19.43;7.37;;;;;;;23.34;43.35;98405.53;4993999;28;20261;-70
2022/03/31 11:04:02;;;;;;;24.60;7.63;;;;;;;23.30;41.16;98412.66;4992651;28;20202;-71
2022/03/31 11:06:30;;;;;;;25.67;8.50;;;;;;;23.11;41.04;98401.13;4991992;28;20194;-70
2022/03/31 11:08:57;;;;;;;27.23;7.47;;;;;;;23.09;41.57;98397.91;4989886;28;20695;-69
2022/03/31 11:11:28;;;;;;;21.63;7.70;;;;;;;23.14;41.16;98410.53;4992190;28;20580;-69
2022/03/31 11:13:56;;;;;;;23.43;7.57;;;;;;;22.92;41.11;98403.16;4991903;28;20192;-68
2022/03/31 11:16:22;;;;;;;31.20;8.50;;;;;;;22.86;41.48;98404.34;4991846;28;20195;-68
2022/03/31 11:18:56;;;;;;;21.63;6.93;;;;;;;22.81;41.74;98371.97;4992443;28;20200;-69
2022/03/31 11:21:25;;;;;;;30.17;8.97;;;;;;;22.88;41.65;98404.88;4991913;28;20202;-68
2022/03/31 11:23:53;;;;;;;25.00;8.00;;;;;;;22.79;41.92;98395.81;4995070;28;20231;-68
2022/03/31 11:26:26;;;;;;;21.00;7.83;;;;;;;22.68;42.44;98389.03;4995717;28;20278;-67
2022/03/31 11:28:53;;;;;;;33.73;9.87;;;;;;;22.76;42.87;98399.16;4995832;28;20188;-68
2022/03/31 11:31:20;;;;;;;25.33;8.37;;;;;;;22.39;43.88;98377.66;4995800;28;20390;-69